Time,TemperatureF,DewpointF,PressureIn,WindDirection,WindDirectionDegrees,WindSpeedMPH,WindSpeedGustMPH,Humidity,HourlyPrecipIn,Conditions,Clouds,dailyrainin,SoftwareType,DateUTC
2013-05-25 00:01:00,49.6,40.9,30.04,NW,304,0.0,1.0,72,0.00,,,0.00,Wunderground v.1.15,2013-05-25 04:01:00,
2013-05-25 00:04:00,49.5,41.2,30.04,NW,304,0.0,1.0,73,0.00,,,0.00,Wunderground v.1.15,2013-05-25 04:04:00,
2013-05-25 00:06:00,49.5,40.8,30.04,NW,304,1.0,1.0,72,0.00,,,0.00,Wunderground v.1.15,2013-05-25 04:06:00,
2013-05-25 00:07:00,49.4,40.7,30.04,NW,304,0.0,1.0,72,0.00,,,0.00,Wunderground v.1.15,2013-05-25 04:07:00,
2013-05-25 00:09:00,49.4,40.7,30.04,NW,304,0.0,1.0,72,0.00,,,0.00,Wunderground v.1.15,2013-05-25 04:09:00,
2013-05-25 00:15:00,49.2,40.6,30.04,NW,304,0.0,1.0,72,0.00,,,0.00,Wunderground v.1.15,2013-05-25 04:15:00,
2013-05-25 00:21:00,49.0,39.6,30.04,NW,304,0.0,1.0,70,0.00,,,0.00,Wunderground v.1.15,2013-05-25 04:21:00,
2013-05-25 00:27:00,49.0,40.0,30.04,NW,304,0.0,1.0,71,0.00,,,0.00,Wunderground v.1.15,2013-05-25 04:27:00,
2013-05-25 00:32:00,49.0,40.0,30.04,NW,304,0.0,1.0,71,0.00,,,0.00,Wunderground v.1.15,2013-05-25 04:32:00,
2013-05-25 00:38:00,49.0,40.4,30.04,NW,304,0.0,1.0,72,0.00,,,0.00,Wunderground v.1.15,2013-05-25 04:38:00,
2013-05-25 00:44:00,49.1,40.5,30.04,NW,304,0.0,1.0,72,0.00,,,0.00,Wunderground v.1.15,2013-05-25 04:44:00,
2013-05-25 00:51:00,48.7,39.7,30.05,NW,304,0.0,0.0,71,0.00,,,0.00,Wunderground v.1.15,2013-05-25 04:51:00,
2013-05-25 00:56:00,48.3,39.3,30.05,NW,304,0.0,2.0,71,0.00,,,0.00,Wunderground v.1.15,2013-05-25 04:56:00,
2013-05-25 01:02:00,48.0,39.8,30.05,West,263,0.0,2.0,73,0.00,,,0.00,Wunderground v.1.15,2013-05-25 05:02:00,
2013-05-25 01:08:00,47.9,40.4,30.06,WNW,288,0.0,2.0,75,0.00,,,0.00,Wunderground v.1.15,2013-05-25 05:08:00,
2013-05-25 01:13:00,47.8,39.6,30.07,WNW,288,0.0,1.0,73,0.00,,,0.00,Wunderground v.1.15,2013-05-25 05:13:00,
2013-05-25 01:19:00,47.7,39.5,30.07,WNW,288,0.0,1.0,73,0.00,,,0.00,Wunderground v.1.15,2013-05-25 05:19:00,
2013-05-25 01:25:00,47.6,40.1,30.07,WNW,288,0.0,0.0,75,0.00,,,0.00,Wunderground v.1.15,2013-05-25 05:25:00,
2013-05-25 01:31:00,47.4,39.5,30.07,WNW,288,0.0,0.0,74,0.00,,,0.00,Wunderground v.1.15,2013-05-25 05:31:00,
2013-05-25 01:37:00,47.2,39.0,30.07,WNW,288,0.0,1.0,73,0.00,,,0.00,Wunderground v.1.15,2013-05-25 05:37:00,
2013-05-25 01:43:00,47.1,39.2,30.08,WNW,288,0.0,1.0,74,0.00,,,0.00,Wunderground v.1.15,2013-05-25 05:43:00,
2013-05-25 01:51:00,47.2,39.7,30.07,WNW,288,0.0,1.0,75,0.00,,,0.00,Wunderground v.1.15,2013-05-25 05:51:00,
2013-05-25 01:56:00,47.2,39.7,30.07,WNW,288,0.0,2.0,75,0.00,,,0.00,Wunderground v.1.15,2013-05-25 05:56:00,
2013-05-25 02:01:00,47.1,39.6,30.07,WNW,290,1.0,1.0,75,0.00,,,0.00,Wunderground v.1.15,2013-05-25 06:01:00,
2013-05-25 02:07:00,47.0,39.5,30.07,NW,321,1.0,2.0,75,0.00,,,0.00,Wunderground v.1.15,2013-05-25 06:07:00,
2013-05-25 02:12:00,47.2,40.0,30.08,NW,325,2.0,2.0,76,0.00,,,0.00,Wunderground v.1.15,2013-05-25 06:12:00,
2013-05-25 02:18:00,47.6,39.4,30.08,NW,318,2.0,3.0,73,0.00,,,0.00,Wunderground v.1.15,2013-05-25 06:18:00,
2013-05-25 02:24:00,47.9,39.7,30.08,NW,308,2.0,2.0,73,0.00,,,0.00,Wunderground v.1.15,2013-05-25 06:24:00,
2013-05-25 02:30:00,48.6,40.3,30.08,NNW,335,2.0,2.0,73,0.00,,,0.00,Wunderground v.1.15,2013-05-25 06:30:00,
2013-05-25 02:36:00,49.2,40.9,30.08,NW,324,2.0,3.0,73,0.00,,,0.00,Wunderground v.1.15,2013-05-25 06:36:00,
2013-05-25 02:42:00,49.5,39.7,30.08,North,350,2.0,3.0,69,0.00,,,0.00,Wunderground v.1.15,2013-05-25 06:42:00,
2013-05-25 02:51:00,50.1,38.8,30.08,North,355,2.0,2.0,65,0.00,,,0.00,Wunderground v.1.15,2013-05-25 06:51:00,
2013-05-25 02:56:00,50.6,38.5,30.07,NW,311,1.0,2.0,63,0.00,,,0.00,Wunderground v.1.15,2013-05-25 06:56:00,
2013-05-25 03:01:00,51.2,38.6,30.08,ESE,107,0.0,3.0,62,0.00,,,0.00,Wunderground v.1.15,2013-05-25 07:01:00,
2013-05-25 03:06:00,51.5,40.1,30.08,ESE,107,0.0,3.0,65,0.00,,,0.00,Wunderground v.1.15,2013-05-25 07:06:00,
2013-05-25 03:12:00,51.5,38.1,30.08,ESE,107,0.0,0.0,60,0.00,,,0.00,Wunderground v.1.15,2013-05-25 07:12:00,
2013-05-25 03:18:00,51.6,39.4,30.08,ESE,107,0.0,1.0,63,0.00,,,0.00,Wunderground v.1.15,2013-05-25 07:18:00,
2013-05-25 03:23:00,51.3,39.5,30.08,East,86,0.0,1.0,64,0.00,,,0.00,Wunderground v.1.15,2013-05-25 07:23:00,
2013-05-25 03:29:00,50.9,39.1,30.09,North,360,0.0,2.0,64,0.00,,,0.00,Wunderground v.1.15,2013-05-25 07:29:00,
2013-05-25 03:35:00,50.3,39.4,30.09,NW,317,1.0,4.0,66,0.00,,,0.00,Wunderground v.1.15,2013-05-25 07:35:00,
2013-05-25 03:41:00,49.7,38.8,30.09,NNW,329,1.0,1.0,66,0.00,,,0.00,Wunderground v.1.15,2013-05-25 07:41:00,
2013-05-25 03:51:00,49.6,39.1,30.09,North,350,1.0,1.0,67,0.00,,,0.00,Wunderground v.1.15,2013-05-25 07:51:00,
2013-05-25 03:56:00,49.5,38.6,30.09,NNW,348,1.0,4.0,66,0.00,,,0.00,Wunderground v.1.15,2013-05-25 07:56:00,
2013-05-25 04:02:00,49.4,38.5,30.10,NNW,338,0.0,1.0,66,0.00,,,0.00,Wunderground v.1.15,2013-05-25 08:02:00,
2013-05-25 04:08:00,49.3,38.4,30.10,North,360,0.0,1.0,66,0.00,,,0.00,Wunderground v.1.15,2013-05-25 08:08:00,
2013-05-25 04:13:00,49.2,38.3,30.10,North,10,0.0,1.0,66,0.00,,,0.00,Wunderground v.1.15,2013-05-25 08:13:00,
2013-05-25 04:19:00,49.4,38.1,30.10,NE,37,0.0,1.0,65,0.00,,,0.00,Wunderground v.1.15,2013-05-25 08:19:00,
2013-05-25 04:25:00,49.6,38.3,30.10,NE,55,0.0,2.0,65,0.00,,,0.00,Wunderground v.1.15,2013-05-25 08:25:00,
2013-05-25 04:31:00,49.8,38.1,30.10,NE,40,1.0,2.0,64,0.00,,,0.00,Wunderground v.1.15,2013-05-25 08:31:00,
2013-05-25 04:37:00,49.6,38.7,30.10,NNW,340,1.0,3.0,66,0.00,,,0.00,Wunderground v.1.15,2013-05-25 08:37:00,
2013-05-25 04:42:00,48.9,38.4,30.10,NNW,342,1.0,1.0,67,0.00,,,0.00,Wunderground v.1.15,2013-05-25 08:42:00,
2013-05-25 04:51:00,48.1,38.4,30.10,NW,323,1.0,1.0,69,0.00,,,0.00,Wunderground v.1.15,2013-05-25 08:51:00,
2013-05-25 04:56:00,47.9,38.2,30.10,NNW,336,1.0,3.0,69,0.00,,,0.00,Wunderground v.1.15,2013-05-25 08:56:00,
2013-05-25 05:01:00,47.5,38.2,30.10,NNW,336,1.0,1.0,70,0.00,,,0.00,Wunderground v.1.15,2013-05-25 09:01:00,
2013-05-25 05:07:00,47.1,38.2,30.11,NNW,336,1.0,2.0,71,0.00,,,0.00,Wunderground v.1.15,2013-05-25 09:07:00,
2013-05-25 05:12:00,46.7,38.1,30.10,NW,317,2.0,2.0,72,0.00,,,0.00,Wunderground v.1.15,2013-05-25 09:12:00,
2013-05-25 05:18:00,46.8,37.9,30.11,NNW,331,2.0,2.0,71,0.00,,,0.00,Wunderground v.1.15,2013-05-25 09:18:00,
2013-05-25 05:24:00,47.1,38.2,30.11,NNW,336,1.0,2.0,71,0.00,,,0.00,Wunderground v.1.15,2013-05-25 09:24:00,
2013-05-25 05:30:00,46.7,38.5,30.11,NNW,337,2.0,2.0,73,0.00,,,0.00,Wunderground v.1.15,2013-05-25 09:30:00,
2013-05-25 05:35:00,46.1,38.3,30.11,NNW,336,2.0,3.0,74,0.00,,,0.00,Wunderground v.1.15,2013-05-25 09:35:00,
2013-05-25 05:41:00,46.1,38.3,30.12,NNW,336,3.0,3.0,74,0.00,,,0.00,Wunderground v.1.15,2013-05-25 09:41:00,
2013-05-25 05:51:00,46.7,38.1,30.12,NNW,335,2.0,2.0,72,0.00,,,0.00,Wunderground v.1.15,2013-05-25 09:51:00,
2013-05-25 05:56:00,46.7,38.5,30.12,NNW,336,2.0,3.0,73,0.00,,,0.00,Wunderground v.1.15,2013-05-25 09:56:00,
2013-05-25 06:01:00,46.7,38.1,30.12,North,350,2.0,3.0,72,0.00,,,0.00,Wunderground v.1.15,2013-05-25 10:01:00,
2013-05-25 06:07:00,47.0,38.4,30.11,NNW,340,2.0,3.0,72,0.00,,,0.00,Wunderground v.1.15,2013-05-25 10:07:00,
2013-05-25 06:13:00,47.2,38.3,30.12,North,351,2.0,3.0,71,0.00,,,0.00,Wunderground v.1.15,2013-05-25 10:13:00,
2013-05-25 06:19:00,47.3,38.7,30.12,NNW,344,3.0,5.0,72,0.00,,,0.00,Wunderground v.1.15,2013-05-25 10:19:00,
2013-05-25 06:24:00,47.4,39.2,30.13,NW,314,3.0,4.0,73,0.00,,,0.00,Wunderground v.1.15,2013-05-25 10:24:00,
2013-05-25 06:30:00,47.6,39.7,30.13,NW,318,3.0,4.0,74,0.00,,,0.00,Wunderground v.1.15,2013-05-25 10:30:00,
2013-05-25 06:36:00,47.7,39.5,30.14,NNW,329,3.0,4.0,73,0.00,,,0.00,Wunderground v.1.15,2013-05-25 10:36:00,
2013-05-25 06:41:00,47.8,39.2,30.14,NW,315,3.0,3.0,72,0.00,,,0.00,Wunderground v.1.15,2013-05-25 10:41:00,
2013-05-25 06:51:00,47.8,38.8,30.14,NW,317,2.0,2.0,71,0.00,,,0.00,Wunderground v.1.15,2013-05-25 10:51:00,
2013-05-25 06:56:00,48.1,40.2,30.14,NW,324,2.0,3.0,74,0.00,,,0.00,Wunderground v.1.15,2013-05-25 10:56:00,
2013-05-25 07:02:00,48.3,38.6,30.14,WNW,297,2.0,3.0,69,0.00,,,0.00,Wunderground v.1.15,2013-05-25 11:02:00,
2013-05-25 07:08:00,48.9,38.4,30.15,NNW,342,2.0,3.0,67,0.00,,,0.00,Wunderground v.1.15,2013-05-25 11:08:00,
2013-05-25 07:13:00,49.4,38.5,30.15,NNW,327,2.0,3.0,66,0.00,,,0.00,Wunderground v.1.15,2013-05-25 11:13:00,
2013-05-25 07:19:00,49.4,39.7,30.15,NNW,330,2.0,4.0,69,0.00,,,0.00,Wunderground v.1.15,2013-05-25 11:19:00,
2013-05-25 07:25:00,49.0,40.0,30.16,NW,321,1.0,2.0,71,0.00,,,0.00,Wunderground v.1.15,2013-05-25 11:25:00,
2013-05-25 07:31:00,48.9,38.0,30.16,NW,312,1.0,1.0,66,0.00,,,0.00,Wunderground v.1.15,2013-05-25 11:31:00,
2013-05-25 07:36:00,49.1,39.0,30.16,NW,316,1.0,2.0,68,0.00,,,0.00,Wunderground v.1.15,2013-05-25 11:36:00,
2013-05-25 07:42:00,49.1,38.6,30.16,NW,324,2.0,3.0,67,0.00,,,0.00,Wunderground v.1.15,2013-05-25 11:42:00,
2013-05-25 07:51:00,49.1,39.0,30.17,NW,313,2.0,2.0,68,0.00,,,0.00,Wunderground v.1.15,2013-05-25 11:51:00,
2013-05-25 07:56:00,49.2,39.8,30.17,WNW,294,2.0,5.0,70,0.00,,,0.00,Wunderground v.1.15,2013-05-25 11:56:00,
2013-05-25 08:02:00,49.3,40.3,30.17,WNW,292,2.0,2.0,71,0.00,,,0.00,Wunderground v.1.15,2013-05-25 12:02:00,
2013-05-25 08:08:00,49.4,40.0,30.17,WNW,295,2.0,2.0,70,0.00,,,0.00,Wunderground v.1.15,2013-05-25 12:08:00,
2013-05-25 08:13:00,49.6,40.2,30.17,NW,313,2.0,3.0,70,0.00,,,0.00,Wunderground v.1.15,2013-05-25 12:13:00,
2013-05-25 08:19:00,50.0,39.5,30.17,NW,313,2.0,3.0,67,0.00,,,0.00,Wunderground v.1.15,2013-05-25 12:19:00,
2013-05-25 08:25:00,50.9,39.5,30.17,NNW,331,2.0,2.0,65,0.00,,,0.00,Wunderground v.1.15,2013-05-25 12:25:00,
2013-05-25 08:31:00,51.8,37.5,30.17,NNW,345,2.0,2.0,58,0.00,,,0.00,Wunderground v.1.15,2013-05-25 12:31:00,
2013-05-25 08:36:00,52.4,38.0,30.18,NW,320,1.0,2.0,58,0.00,,,0.00,Wunderground v.1.15,2013-05-25 12:36:00,
2013-05-25 08:41:00,52.9,39.8,30.18,NW,320,1.0,2.0,61,0.00,,,0.00,Wunderground v.1.15,2013-05-25 12:41:00,
2013-05-25 08:50:00,53.1,39.6,30.18,ENE,57,2.0,2.0,60,0.00,,,0.00,Wunderground v.1.15,2013-05-25 12:50:00,
2013-05-25 08:56:00,53.1,40.4,30.18,NNE,23,2.0,3.0,62,0.00,,,0.00,Wunderground v.1.15,2013-05-25 12:56:00,
2013-05-25 09:01:00,53.2,40.5,30.19,NNE,19,2.0,2.0,62,0.00,,,0.00,Wunderground v.1.15,2013-05-25 13:01:00,
2013-05-25 09:07:00,53.4,40.3,30.19,NNE,23,1.0,3.0,61,0.00,,,0.00,Wunderground v.1.15,2013-05-25 13:07:00,
2013-05-25 09:13:00,53.8,41.1,30.19,NNW,336,2.0,3.0,62,0.00,,,0.00,Wunderground v.1.15,2013-05-25 13:13:00,
2013-05-25 09:19:00,54.3,40.7,30.18,North,355,2.0,3.0,60,0.00,,,0.00,Wunderground v.1.15,2013-05-25 13:19:00,
2013-05-25 09:25:00,54.8,40.7,30.18,NNW,340,1.0,3.0,59,0.00,,,0.00,Wunderground v.1.15,2013-05-25 13:25:00,
2013-05-25 09:30:00,55.4,41.3,30.19,NNW,341,1.0,2.0,59,0.00,,,0.00,Wunderground v.1.15,2013-05-25 13:30:00,
2013-05-25 09:36:00,56.0,40.1,30.19,NNW,340,1.0,4.0,55,0.00,,,0.00,Wunderground v.1.15,2013-05-25 13:36:00,
2013-05-25 09:41:00,56.4,40.9,30.19,NW,309,1.0,1.0,56,0.00,,,0.00,Wunderground v.1.15,2013-05-25 13:41:00,
2013-05-25 09:51:00,57.2,41.6,30.19,North,349,1.0,1.0,56,0.00,,,0.00,Wunderground v.1.15,2013-05-25 13:51:00,
2013-05-25 09:56:00,57.7,39.7,30.19,NNW,330,1.0,4.0,51,0.00,,,0.00,Wunderground v.1.15,2013-05-25 13:56:00,
2013-05-25 10:01:00,58.2,42.1,30.20,NNW,333,1.0,2.0,55,0.00,,,0.00,Wunderground v.1.15,2013-05-25 14:01:00,
2013-05-25 10:06:00,58.8,40.7,30.20,North,5,1.0,2.0,51,0.00,,,0.00,Wunderground v.1.15,2013-05-25 14:06:00,
2013-05-25 10:11:00,59.3,40.1,30.20,WNW,301,1.0,1.0,49,0.00,,,0.00,Wunderground v.1.15,2013-05-25 14:11:00,
2013-05-25 10:17:00,59.6,38.2,30.20,NE,40,1.0,4.0,45,0.00,,,0.00,Wunderground v.1.15,2013-05-25 14:17:00,
2013-05-25 10:22:00,60.0,39.1,30.20,NNW,346,1.0,1.0,46,0.00,,,0.00,Wunderground v.1.15,2013-05-25 14:22:00,
2013-05-25 10:27:00,60.4,38.9,30.20,NW,311,1.0,1.0,45,0.00,,,0.00,Wunderground v.1.15,2013-05-25 14:27:00,
2013-05-25 10:33:00,61.0,38.9,30.20,West,274,1.0,1.0,44,0.00,,,0.00,Wunderground v.1.15,2013-05-25 14:33:00,
2013-05-25 10:39:00,61.9,37.3,30.20,ENE,62,1.0,2.0,40,0.00,,,0.00,Wunderground v.1.15,2013-05-25 14:39:00,
2013-05-25 10:44:00,62.6,35.3,30.20,NW,321,1.0,2.0,36,0.00,,,0.00,Wunderground v.1.15,2013-05-25 14:44:00,
2013-05-25 10:51:00,63.6,34.7,30.19,NNE,30,0.0,0.0,34,0.00,,,0.00,Wunderground v.1.15,2013-05-25 14:51:00,
2013-05-25 10:56:00,64.3,33.8,30.19,NNE,14,0.0,4.0,32,0.00,,,0.00,Wunderground v.1.15,2013-05-25 14:56:00,
2013-05-25 11:02:00,64.8,35.0,30.20,NNE,13,0.0,1.0,33,0.00,,,0.00,Wunderground v.1.15,2013-05-25 15:02:00,
2013-05-25 11:08:00,65.0,38.1,30.20,SE,142,0.0,2.0,37,0.00,,,0.00,Wunderground v.1.15,2013-05-25 15:08:00,
2013-05-25 11:14:00,65.6,35.7,30.19,North,355,0.0,1.0,33,0.00,,,0.00,Wunderground v.1.15,2013-05-25 15:14:00,
2013-05-25 11:19:00,66.3,35.5,30.20,NNW,331,0.0,2.0,32,0.00,,,0.00,Wunderground v.1.15,2013-05-25 15:19:00,
2013-05-25 11:24:00,66.9,36.8,30.20,WNW,292,1.0,2.0,33,0.00,,,0.00,Wunderground v.1.15,2013-05-25 15:24:00,
2013-05-25 11:30:00,67.3,38.7,30.20,SE,143,1.0,1.0,35,0.00,,,0.00,Wunderground v.1.15,2013-05-25 15:30:00,
2013-05-25 11:35:00,67.7,38.3,30.19,ENE,61,1.0,2.0,34,0.00,,,0.00,Wunderground v.1.15,2013-05-25 15:35:00,
2013-05-25 11:41:00,67.5,38.9,30.20,ENE,70,1.0,2.0,35,0.00,,,0.00,Wunderground v.1.15,2013-05-25 15:41:00,
2013-05-25 11:51:00,67.5,40.3,30.20,ENE,65,0.0,0.0,37,0.00,,,0.00,Wunderground v.1.15,2013-05-25 15:51:00,
2013-05-25 11:56:00,67.7,38.3,30.19,ENE,78,0.0,2.0,34,0.00,,,0.00,Wunderground v.1.15,2013-05-25 15:56:00,
2013-05-25 12:02:00,67.7,39.8,30.19,East,89,1.0,1.0,36,0.00,,,0.00,Wunderground v.1.15,2013-05-25 16:02:00,
2013-05-25 12:07:00,67.6,38.2,30.19,East,95,1.0,1.0,34,0.00,,,0.00,Wunderground v.1.15,2013-05-25 16:07:00,
2013-05-25 12:13:00,67.6,39.7,30.19,NNW,329,1.0,2.0,36,0.00,,,0.00,Wunderground v.1.15,2013-05-25 16:13:00,
2013-05-25 12:19:00,67.7,39.0,30.19,East,83,1.0,2.0,35,0.00,,,0.00,Wunderground v.1.15,2013-05-25 16:19:00,
2013-05-25 12:25:00,68.1,40.1,30.19,ENE,76,1.0,2.0,36,0.00,,,0.00,Wunderground v.1.15,2013-05-25 16:25:00,
2013-05-25 12:31:00,68.4,39.7,30.19,SSE,168,1.0,1.0,35,0.00,,,0.00,Wunderground v.1.15,2013-05-25 16:31:00,
2013-05-25 12:37:00,68.6,39.8,30.19,East,85,1.0,3.0,35,0.00,,,0.00,Wunderground v.1.15,2013-05-25 16:37:00,
2013-05-25 12:42:00,69.0,39.4,30.18,SSE,167,1.0,4.0,34,0.00,,,0.00,Wunderground v.1.15,2013-05-25 16:42:00,
2013-05-25 12:51:00,69.1,39.5,30.17,East,86,2.0,2.0,34,0.00,,,0.00,Wunderground v.1.15,2013-05-25 16:51:00,
2013-05-25 12:56:00,69.2,39.6,30.17,ENE,59,1.0,3.0,34,0.00,,,0.00,Wunderground v.1.15,2013-05-25 16:56:00,
2013-05-25 13:02:00,69.2,40.4,30.17,NNE,26,1.0,2.0,35,0.00,,,0.00,Wunderground v.1.15,2013-05-25 17:02:00,
2013-05-25 13:07:00,69.1,40.3,30.17,NE,38,2.0,3.0,35,0.00,,,0.00,Wunderground v.1.15,2013-05-25 17:07:00,
2013-05-25 13:13:00,69.4,40.5,30.16,North,355,2.0,2.0,35,0.00,,,0.00,Wunderground v.1.15,2013-05-25 17:13:00,
2013-05-25 13:19:00,70.0,40.3,30.16,ESE,123,1.0,2.0,34,0.00,,,0.00,Wunderground v.1.15,2013-05-25 17:19:00,
2013-05-25 13:25:00,70.4,40.7,30.14,ENE,62,1.0,2.0,34,0.00,,,0.00,Wunderground v.1.15,2013-05-25 17:25:00,
2013-05-25 13:31:00,70.3,41.3,30.14,South,186,1.0,1.0,35,0.00,,,0.00,Wunderground v.1.15,2013-05-25 17:31:00,
2013-05-25 13:36:00,70.4,40.7,30.14,ENE,64,1.0,1.0,34,0.00,,,0.00,Wunderground v.1.15,2013-05-25 17:36:00,
2013-05-25 13:42:00,71.0,41.2,30.13,ENE,69,1.0,2.0,34,0.00,,,0.00,Wunderground v.1.15,2013-05-25 17:42:00,
2013-05-25 13:51:00,71.4,39.2,30.13,NNE,12,1.0,2.0,31,0.00,,,0.00,Wunderground v.1.15,2013-05-25 17:51:00,
2013-05-25 13:56:00,71.7,41.8,30.13,NE,38,1.0,3.0,34,0.00,,,0.00,Wunderground v.1.15,2013-05-25 17:56:00,
2013-05-25 14:01:00,71.9,42.0,30.13,ENE,75,1.0,3.0,34,0.00,,,0.00,Wunderground v.1.15,2013-05-25 18:01:00,
2013-05-25 14:06:00,72.1,42.2,30.13,NE,49,1.0,3.0,34,0.00,,,0.00,Wunderground v.1.15,2013-05-25 18:06:00,
2013-05-25 14:12:00,72.5,41.0,30.12,North,360,1.0,1.0,32,0.00,,,0.00,Wunderground v.1.15,2013-05-25 18:12:00,
2013-05-25 14:18:00,73.1,43.8,30.12,ENE,57,1.0,2.0,35,0.00,,,0.00,Wunderground v.1.15,2013-05-25 18:18:00,
2013-05-25 14:24:00,73.7,41.2,30.12,NW,306,0.0,2.0,31,0.00,,,0.00,Wunderground v.1.15,2013-05-25 18:24:00,
2013-05-25 14:30:00,73.9,43.0,30.12,South,175,1.0,2.0,33,0.00,,,0.00,Wunderground v.1.15,2013-05-25 18:30:00,
2013-05-25 14:35:00,73.7,42.8,30.11,NE,45,1.0,2.0,33,0.00,,,0.00,Wunderground v.1.15,2013-05-25 18:35:00,
2013-05-25 14:41:00,73.7,45.1,30.10,ENE,78,1.0,3.0,36,0.00,,,0.00,Wunderground v.1.15,2013-05-25 18:41:00,
2013-05-25 14:51:00,73.6,44.2,30.10,North,355,2.0,3.0,35,0.00,,,0.00,Wunderground v.1.15,2013-05-25 18:51:00,
2013-05-25 14:56:00,73.0,43.7,30.09,ENE,61,2.0,4.0,35,0.00,,,0.00,Wunderground v.1.15,2013-05-25 18:56:00,
2013-05-25 15:01:00,72.4,44.6,30.09,ENE,63,2.0,2.0,37,0.00,,,0.00,Wunderground v.1.15,2013-05-25 19:01:00,
2013-05-25 15:07:00,72.6,45.5,30.09,NNE,28,1.0,2.0,38,0.00,,,0.00,Wunderground v.1.15,2013-05-25 19:07:00,
2013-05-25 15:13:00,73.0,45.2,30.09,South,184,1.0,2.0,37,0.00,,,0.00,Wunderground v.1.15,2013-05-25 19:13:00,
2013-05-25 15:19:00,72.8,44.3,30.08,South,182,1.0,4.0,36,0.00,,,0.00,Wunderground v.1.15,2013-05-25 19:19:00,
2013-05-25 15:24:00,73.0,45.2,30.08,NNE,22,1.0,1.0,37,0.00,,,0.00,Wunderground v.1.15,2013-05-25 19:24:00,
2013-05-25 15:30:00,73.3,45.4,30.07,ENE,69,1.0,1.0,37,0.00,,,0.00,Wunderground v.1.15,2013-05-25 19:30:00,
2013-05-25 15:36:00,73.1,46.0,30.07,ESE,120,1.0,2.0,38,0.00,,,0.00,Wunderground v.1.15,2013-05-25 19:36:00,
2013-05-25 15:42:00,72.9,45.8,30.07,ENE,69,1.0,3.0,38,0.00,,,0.00,Wunderground v.1.15,2013-05-25 19:42:00,
2013-05-25 15:51:00,72.9,46.5,30.07,NNE,22,2.0,2.0,39,0.00,,,0.00,Wunderground v.1.15,2013-05-25 19:51:00,
2013-05-25 15:56:00,72.9,45.8,30.06,ENE,74,1.0,5.0,38,0.00,,,0.00,Wunderground v.1.15,2013-05-25 19:56:00,
2013-05-25 16:01:00,72.9,46.5,30.06,ENE,63,1.0,2.0,39,0.00,,,0.00,Wunderground v.1.15,2013-05-25 20:01:00,
2013-05-25 16:07:00,73.3,45.4,30.06,NE,54,1.0,2.0,37,0.00,,,0.00,Wunderground v.1.15,2013-05-25 20:07:00,
2013-05-25 16:13:00,73.6,47.1,30.06,ENE,77,1.0,2.0,39,0.00,,,0.00,Wunderground v.1.15,2013-05-25 20:13:00,
2013-05-25 16:19:00,73.6,47.8,30.05,ENE,64,1.0,3.0,40,0.00,,,0.00,Wunderground v.1.15,2013-05-25 20:19:00,
2013-05-25 16:25:00,73.5,46.3,30.05,NE,46,1.0,4.0,38,0.00,,,0.00,Wunderground v.1.15,2013-05-25 20:25:00,
2013-05-25 16:31:00,73.7,47.9,30.05,ENE,63,1.0,2.0,40,0.00,,,0.00,Wunderground v.1.15,2013-05-25 20:31:00,
2013-05-25 16:37:00,73.8,46.6,30.05,ENE,60,1.0,2.0,38,0.00,,,0.00,Wunderground v.1.15,2013-05-25 20:37:00,
2013-05-25 16:42:00,73.9,48.1,30.05,ESE,105,1.0,1.0,40,0.00,,,0.00,Wunderground v.1.15,2013-05-25 20:42:00,
2013-05-25 16:51:00,73.7,47.9,30.05,NNE,26,1.0,2.0,40,0.00,,,0.00,Wunderground v.1.15,2013-05-25 20:51:00,
2013-05-25 16:56:00,73.6,48.4,30.04,East,101,1.0,3.0,41,0.00,,,0.00,Wunderground v.1.15,2013-05-25 20:56:00,
2013-05-25 17:02:00,73.7,49.2,30.04,ENE,63,0.0,1.0,42,0.00,,,0.00,Wunderground v.1.15,2013-05-25 21:02:00,
2013-05-25 17:08:00,73.7,49.8,30.04,NE,45,0.0,1.0,43,0.00,,,0.00,Wunderground v.1.15,2013-05-25 21:08:00,
2013-05-25 17:14:00,73.6,50.3,30.03,SE,131,0.0,1.0,44,0.00,,,0.00,Wunderground v.1.15,2013-05-25 21:14:00,
2013-05-25 17:19:00,73.5,50.9,30.03,SE,131,0.0,1.0,45,0.00,,,0.00,Wunderground v.1.15,2013-05-25 21:19:00,
2013-05-25 17:25:00,73.5,52.6,30.03,SE,131,0.0,1.0,48,0.00,,,0.00,Wunderground v.1.15,2013-05-25 21:25:00,
2013-05-25 17:30:00,73.4,48.9,30.03,NE,45,0.0,0.0,42,0.00,,,0.00,Wunderground v.1.15,2013-05-25 21:30:00,
2013-05-25 17:36:00,73.3,48.8,30.03,SE,133,0.0,2.0,42,0.00,,,0.00,Wunderground v.1.15,2013-05-25 21:36:00,
2013-05-25 17:42:00,73.4,48.3,30.03,NNW,338,0.0,1.0,41,0.00,,,0.00,Wunderground v.1.15,2013-05-25 21:42:00,
2013-05-25 17:51:00,73.5,50.2,30.02,NNE,28,0.0,0.0,44,0.00,,,0.00,Wunderground v.1.15,2013-05-25 21:51:00,
2013-05-25 17:56:00,73.5,49.6,30.02,NNE,28,0.0,2.0,43,0.00,,,0.00,Wunderground v.1.15,2013-05-25 21:56:00,
2013-05-25 18:02:00,73.5,49.0,30.02,NNE,28,0.0,1.0,42,0.00,,,0.00,Wunderground v.1.15,2013-05-25 22:02:00,
2013-05-25 18:08:00,73.2,50.0,30.02,NNW,330,0.0,2.0,44,0.00,,,0.00,Wunderground v.1.15,2013-05-25 22:08:00,
2013-05-25 18:14:00,72.6,50.0,30.02,NW,323,0.0,0.0,45,0.00,,,0.00,Wunderground v.1.15,2013-05-25 22:14:00,
2013-05-25 18:19:00,72.0,48.3,30.02,NW,323,0.0,0.0,43,0.00,,,0.00,Wunderground v.1.15,2013-05-25 22:19:00,
2013-05-25 18:24:00,71.6,47.3,30.02,NW,323,0.0,1.0,42,0.00,,,0.00,Wunderground v.1.15,2013-05-25 22:24:00,
2013-05-25 18:29:00,71.5,45.2,30.02,NW,311,1.0,2.0,39,0.00,,,0.00,Wunderground v.1.15,2013-05-25 22:29:00,
2013-05-25 18:35:00,71.7,41.0,30.02,WNW,298,1.0,2.0,33,0.00,,,0.00,Wunderground v.1.15,2013-05-25 22:35:00,
2013-05-25 18:40:00,72.2,36.3,30.02,West,259,1.0,1.0,27,0.00,,,0.00,Wunderground v.1.15,2013-05-25 22:40:00,
2013-05-25 18:45:00,72.5,40.1,30.02,West,270,1.0,1.0,31,0.00,,,0.00,Wunderground v.1.15,2013-05-25 22:45:00,
2013-05-25 18:50:00,72.4,37.4,30.02,West,278,0.0,1.0,28,0.00,,,0.00,Wunderground v.1.15,2013-05-25 22:50:00,
2013-05-25 18:56:00,72.4,40.0,30.03,South,186,1.0,2.0,31,0.00,,,0.00,Wunderground v.1.15,2013-05-25 22:56:00,
2013-05-25 19:01:00,72.2,40.7,30.03,WSW,248,1.0,1.0,32,0.00,,,0.00,Wunderground v.1.15,2013-05-25 23:01:00,
2013-05-25 19:07:00,72.0,38.9,30.03,South,186,0.0,2.0,30,0.00,,,0.00,Wunderground v.1.15,2013-05-25 23:07:00,
2013-05-25 19:13:00,71.6,38.5,30.03,NNW,347,1.0,1.0,30,0.00,,,0.00,Wunderground v.1.15,2013-05-25 23:13:00,
2013-05-25 19:19:00,71.4,37.5,30.04,NW,315,1.0,2.0,29,0.00,,,0.00,Wunderground v.1.15,2013-05-25 23:19:00,
2013-05-25 19:24:00,71.3,38.2,30.04,WNW,291,1.0,1.0,30,0.00,,,0.00,Wunderground v.1.15,2013-05-25 23:24:00,
2013-05-25 19:30:00,71.0,38.8,30.04,WNW,296,1.0,1.0,31,0.00,,,0.00,Wunderground v.1.15,2013-05-25 23:30:00,
2013-05-25 19:36:00,70.5,39.2,30.04,West,275,0.0,2.0,32,0.00,,,0.00,Wunderground v.1.15,2013-05-25 23:36:00,
2013-05-25 19:42:00,70.0,42.5,30.05,NW,310,1.0,1.0,37,0.00,,,0.00,Wunderground v.1.15,2013-05-25 23:42:00,
2013-05-25 19:51:00,69.2,43.8,30.06,West,277,1.0,1.0,40,0.00,,,0.00,Wunderground v.1.15,2013-05-25 23:51:00,
2013-05-25 19:56:00,68.9,47.3,30.06,NW,306,0.0,3.0,46,0.00,,,0.00,Wunderground v.1.15,2013-05-25 23:56:00,
2013-05-25 20:01:00,68.4,46.8,30.06,SSE,161,0.0,0.0,46,0.00,,,0.00,Wunderground v.1.15,2013-05-26 00:01:00,
2013-05-25 20:06:00,67.8,41.9,30.06,SSW,213,0.0,1.0,39,0.00,,,0.00,Wunderground v.1.15,2013-05-26 00:06:00,
2013-05-25 20:11:00,67.2,45.1,30.06,WNW,298,0.0,1.0,45,0.00,,,0.00,Wunderground v.1.15,2013-05-26 00:11:00,
2013-05-25 20:17:00,66.3,44.9,30.06,WNW,299,0.0,2.0,46,0.00,,,0.00,Wunderground v.1.15,2013-05-26 00:17:00,
2013-05-25 20:23:00,65.5,45.8,30.06,WNW,299,0.0,0.0,49,0.00,,,0.00,Wunderground v.1.15,2013-05-26 00:23:00,
2013-05-25 20:28:00,64.9,44.2,30.06,West,265,0.0,2.0,47,0.00,,,0.00,Wunderground v.1.15,2013-05-26 00:28:00,
2013-05-25 20:34:00,64.8,44.1,30.06,WNW,289,0.0,0.0,47,0.00,,,0.00,Wunderground v.1.15,2013-05-26 00:34:00,
2013-05-25 20:40:00,64.3,44.7,30.06,WNW,289,0.0,0.0,49,0.00,,,0.00,Wunderground v.1.15,2013-05-26 00:40:00,
2013-05-25 20:51:00,62.7,44.3,30.06,WNW,291,0.0,1.0,51,0.00,,,0.00,Wunderground v.1.15,2013-05-26 00:51:00,
2013-05-25 20:56:00,61.8,44.0,30.06,WNW,293,0.0,1.0,52,0.00,,,0.00,Wunderground v.1.15,2013-05-26 00:56:00,
2013-05-25 21:01:00,61.0,43.2,30.06,WNW,298,0.0,1.0,52,0.00,,,0.00,Wunderground v.1.15,2013-05-26 01:01:00,
2013-05-25 21:07:00,60.5,43.8,30.06,WNW,299,0.0,1.0,54,0.00,,,0.00,Wunderground v.1.15,2013-05-26 01:07:00,
2013-05-25 21:13:00,60.2,43.0,30.05,WNW,301,0.0,1.0,53,0.00,,,0.00,Wunderground v.1.15,2013-05-26 01:13:00,
2013-05-25 21:19:00,59.8,43.6,30.05,WNW,301,0.0,1.0,55,0.00,,,0.00,Wunderground v.1.15,2013-05-26 01:19:00,
2013-05-25 21:24:00,59.5,42.3,30.05,WNW,301,0.0,1.0,53,0.00,,,0.00,Wunderground v.1.15,2013-05-26 01:24:00,
2013-05-25 21:30:00,59.0,42.4,30.06,WNW,301,0.0,0.0,54,0.00,,,0.00,Wunderground v.1.15,2013-05-26 01:30:00,
2013-05-25 21:35:00,58.7,42.6,30.06,WNW,301,0.0,1.0,55,0.00,,,0.00,Wunderground v.1.15,2013-05-26 01:35:00,
2013-05-25 21:41:00,58.3,42.2,30.06,WNW,301,0.0,0.0,55,0.00,,,0.00,Wunderground v.1.15,2013-05-26 01:41:00,
2013-05-25 21:51:00,58.0,41.9,30.06,NW,310,0.0,2.0,55,0.00,,,0.00,Wunderground v.1.15,2013-05-26 01:51:00,
2013-05-25 21:56:00,57.9,41.8,30.07,NW,311,0.0,2.0,55,0.00,,,0.00,Wunderground v.1.15,2013-05-26 01:56:00,
2013-05-25 22:02:00,58.8,37.5,30.07,WNW,288,1.0,1.0,45,0.00,,,0.00,Wunderground v.1.15,2013-05-26 02:02:00,
2013-05-25 22:07:00,60.5,36.0,30.07,WSW,248,1.0,1.0,40,0.00,,,0.00,Wunderground v.1.15,2013-05-26 02:07:00,
2013-05-25 22:12:00,61.2,39.7,30.07,NNW,333,1.0,5.0,45,0.00,,,0.00,Wunderground v.1.15,2013-05-26 02:12:00,
2013-05-25 22:18:00,60.8,39.9,30.07,NW,317,1.0,5.0,46,0.00,,,0.00,Wunderground v.1.15,2013-05-26 02:18:00,
2013-05-25 22:23:00,59.4,40.7,30.07,NW,320,1.0,2.0,50,0.00,,,0.00,Wunderground v.1.15,2013-05-26 02:23:00,
2013-05-25 22:28:00,58.2,41.1,30.07,NW,320,1.0,2.0,53,0.00,,,0.00,Wunderground v.1.15,2013-05-26 02:28:00,
2013-05-25 22:34:00,57.4,40.9,30.07,NW,320,1.0,2.0,54,0.00,,,0.00,Wunderground v.1.15,2013-05-26 02:34:00,
2013-05-25 22:40:00,56.7,41.2,30.07,NW,319,1.0,1.0,56,0.00,,,0.00,Wunderground v.1.15,2013-05-26 02:40:00,
2013-05-25 22:51:00,56.0,40.1,30.08,NW,319,1.0,1.0,55,0.00,,,0.00,Wunderground v.1.15,2013-05-26 02:51:00,
2013-05-25 22:56:00,56.1,38.7,30.07,NW,319,1.0,2.0,52,0.00,,,0.00,Wunderground v.1.15,2013-05-26 02:56:00,
2013-05-25 23:01:00,56.2,38.3,30.06,NW,319,0.0,1.0,51,0.00,,,0.00,Wunderground v.1.15,2013-05-26 03:01:00,
2013-05-25 23:06:00,56.3,39.9,30.05,NW,319,0.0,1.0,54,0.00,,,0.00,Wunderground v.1.15,2013-05-26 03:06:00,
2013-05-25 23:12:00,56.4,38.5,30.06,NW,319,0.0,0.0,51,0.00,,,0.00,Wunderground v.1.15,2013-05-26 03:12:00,
2013-05-25 23:18:00,56.2,39.8,30.07,NW,319,1.0,1.0,54,0.00,,,0.00,Wunderground v.1.15,2013-05-26 03:18:00,
2013-05-25 23:24:00,56.1,38.7,30.07,NW,319,1.0,2.0,52,0.00,,,0.00,Wunderground v.1.15,2013-05-26 03:24:00,
2013-05-25 23:30:00,56.0,40.1,30.07,NW,319,1.0,1.0,55,0.00,,,0.00,Wunderground v.1.15,2013-05-26 03:30:00,
2013-05-25 23:35:00,56.1,38.7,30.07,NW,319,1.0,2.0,52,0.00,,,0.00,Wunderground v.1.15,2013-05-26 03:35:00,
2013-05-25 23:41:00,56.4,40.4,30.07,NW,319,1.0,2.0,55,0.00,,,0.00,Wunderground v.1.15,2013-05-26 03:41:00,
2013-05-25 23:51:00,56.8,38.9,30.06,NW,319,1.0,1.0,51,0.00,,,0.00,Wunderground v.1.15,2013-05-26 03:51:00,
2013-05-25 23:56:00,56.8,38.9,30.06,NW,319,0.0,1.0,51,0.00,,,0.00,Wunderground v.1.15,2013-05-26 03:56:00,